Terminal Aerodrome Forecast
Issued by NWS

Home | Current Version | Previous Version | Text Only | Print | Product List | Glossary Off
Versions: 1 2 3 4 5 6 7 8 9 10 11 12 13 14 15

000
FTUS43 KBIS 171700
TAFMOT
TAF
KMOT 171720Z 1718/1818 13012KT P6SM BKN040
     FM180100 10008KT P6SM BKN030
     FM180600 10009KT P6SM VCSH BKN020
     FM181400 12015KT P6SM BKN040=

USA.gov is the U.S. government's official web portal to all federal, state and local government web resources and services.